Columbus, MT (59019)

3:05 AM MST on February 12, 2016 (GMT -0700)
Bearpaw Ranch | | Change Station
CLOSE
Current Station
Personal Weather Station
Location: Columbus, MT
Elevation: 4577 ft
Nearby Weather Stations

Elev 4577 ft 45.55 °N, 109.22 °W | Updated 0 second ago

Mostly Cloudy
Mostly Cloudy
39.7 °F
Feels Like 40 °F
N
3.0
Wind Variable Wind from NE
Gusts 3.0 mph

Today
High -- | Low -- °F
--% Chance of Precip.
Yesterday
High -- | Low -- °F
Precip. -- in
Pressure 30.31 in
Visibility 10.0 miles
Clouds Few 8500 ft
Scattered Clouds 10000 ft
Windchill 40 °F
Dew Point 28 °F
Humidity 62%
Rainfall 0.00 in
Snow Depth Not available.
7:24 AM 5:38 PM
Waxing Crescent, 19% visible
METAR KBIL 120953Z 01003KT 10SM FEW085 SCT100 01/M02 A3028 RMK AO2 SLP262 T00061017
Pressure 30.31 in
Visibility 10.0 miles
Clouds Few 8500 ft
Scattered Clouds 10000 ft
Windchill 40 °F
Dew Point 28 °F
Humidity 62%
Rainfall 0.00 in
Snow Depth Not available.
7:24 AM 5:38 PM
Waxing Crescent, 19% visible
METAR KBIL 120953Z 01003KT 10SM FEW085 SCT100 01/M02 A3028 RMK AO2 SLP262 T00061017

10-Day Weather Forecast

Almanac

Astronomy

Feb. 12, 2016 Rise Set
Actual Time
Civil Twilight
Nautical Twilight
Astronomical Twilight
Moon
Length of Visible Light
Length of Day
Tomorrow will be .
, % of the Moon is Illuminated

Today's Extremes

State Highs State Lows

Community

WunderPhotos

Upload Photos

1,892,287 photos uploaded!

WunderBlog® & News

Nearby

Air Quality

  Air Quality AQ Index Pollutant
Not available.

Snow Depth

Station Depth Elevation

Earthquake Activity

City Distance Mag. Time & Date
Minimum magnitude displayed is 2.5.

Coastal Water Temperatures

Place Temperature

Stations

Nearby Weather Stations

Station Location Temp. Windchill Dew Point Humidity Wind Precip. Elev Updated Type
                   

Watches & Warnings

There are currently no watches in effect.